Tutti
Norseman Airport (Norseman, Western Australia) YNSM Meteo
|
Norseman, Western Australia (YNSM)
Cielo sereno
Venti leggeri |
|
13 °C |
There is no TAF data available at YNSM or any nearby airports.
Storico METAR YNSM recente
| Date | Time (AWST) | Flight Rules | Wind Dir. | Speed | Type | Height AGL (ft) | Visibility | Temp (°C) | Temp (°F) | Dew Point (°C) | Dew Point (°F) | Rel. Humid. | Pressure | Density Altitude | Remarks |
|---|---|---|---|---|---|---|---|---|---|---|---|---|---|---|---|
| 09-mag | 07:00 | n/a | 50° | 9 kt | Missing | 13° | 55° | 6° | 42° | 62% | 1032 mb | 76 ft | |||
| 09-mag | 06:00 | n/a | 40° | 13 kt | Missing | 13° | 55° | 6° | 42° | 62% | 1031 mb | 106 ft | |||
| 09-mag | 05:00 | n/a | 50° | 9 kt | Missing | 13° | 55° | 6° | 42° | 62% | 1031 mb | 106 ft | |||
| 09-mag | 04:00 | n/a | 40° | 7 kt | Missing | 13° | 55° | 6° | 42° | 62% | 1031 mb | 106 ft | |||
| 09-mag | 03:00 | n/a | 50° | 9 kt | Missing | 13° | 55° | 6° | 42° | 62% | 1031 mb | 106 ft | |||
| 09-mag | 02:00 | n/a | 70° | 5 kt | Missing | 10° | 50° | 6° | 42° | 76% | 1031 mb | -254 ft | |||
| 09-mag | 01:00 | n/a | 60° | 5 kt | Missing | 13° | 55° | 6° | 42° | 62% | 1031 mb | 106 ft | |||
| 09-mag | 00:00 | n/a | 70° | 5 kt | Missing | 12° | 53° | 6° | 42° | 67% | 1031 mb | -14 ft | |||
| 08-mag | 23:00 | n/a | 90° | 5 kt | Missing | 11° | 51° | 5° | 41° | 66% | 1032 mb | -164 ft | |||
| 08-mag | 22:00 | n/a | 100° | 5 kt | Missing | 10° | 50° | 4° | 39° | 66% | 1032 mb | -284 ft | |||
| 08-mag | 21:00 | n/a | 90° | 6 kt | Missing | 11° | 51° | 4° | 39° | 62% | 1032 mb | -164 ft | |||
| 08-mag | 20:00 | n/a | 90° | 5 kt | Missing | 11° | 51° | 4° | 39° | 62% | 1032 mb | -164 ft | |||
| 08-mag | 19:00 | n/a | 70° | 5 kt | Missing | 12° | 53° | 4° | 39° | 58% | 1031 mb | -14 ft | |||
| 08-mag | 18:00 | n/a | 90° | 4 kt | Missing | 14° | 57° | 4° | 39° | 51% | 1031 mb | 226 ft | |||
| 08-mag | 17:00 | n/a | 100° | 8 kt | Missing | 17° | 62° | 4° | 39° | 42% | 1031 mb | 586 ft | |||
| 08-mag | 16:00 | n/a | 100° | 10 kt | Missing | 18° | 64° | 4° | 39° | 39% | 1031 mb | 706 ft | |||
| 08-mag | 15:00 | n/a | 100° | 7 kt | Missing | 18° | 64° | 4° | 39° | 39% | 1031 mb | 706 ft | |||
| 08-mag | 14:00 | n/a | 90° | 8 kt | Missing | 19° | 66° | 5° | 41° | 40% | 1031 mb | 826 ft | |||
| 08-mag | 13:00 | n/a | 60° | 12 kt | Missing | 18° | 64° | 5° | 41° | 42% | 1031 mb | 706 ft | |||
| 08-mag | 12:00 | n/a | 30° | 11 kt | Missing | 17° | 62° | 6° | 42° | 48% | 1032 mb | 556 ft | |||
| 08-mag | 11:00 | n/a | 70° | 11 kt | Missing | 15° | 59° | 7° | 44° | 59% | 1034 mb | 257 ft | |||
| 08-mag | 10:00 | n/a | 50° | 11 kt | Missing | 15° | 59° | 7° | 44° | 59% | 1034 mb | 257 ft | |||
| 08-mag | 09:00 | n/a | 60° | 9 kt | Missing | 13° | 55° | 8° | 46° | 72% | 1035 mb | -13 ft | |||
| 08-mag | 08:00 | n/a | 70° | 9 kt | Missing | 11° | 51° | 7° | 44° | 76% | 1035 mb | -253 ft |
Accedi
| Il tuo browser non è supportato. fai l'upgrade del tuo browser |
